Time,TemperatureF,DewpointF,PressureIn,WindDirection,WindDirectionDegrees,WindSpeedMPH,WindSpeedGustMPH,Humidity,HourlyPrecipIn,Conditions,Clouds,dailyrainin,SoftwareType,DateUTC
2014-12-25 00:52:00,38.0,35.0,-100.00,SW,236,6.0,-999.0,88,-99.99,,,-99.99,,2014-12-25 05:52:00,
2014-12-25 05:13:00,37.0,34.0,-100.00,WSW,253,8.0,-999.0,87,-99.99,,,-99.99,,2014-12-25 10:13:00,
2014-12-25 06:40:00,37.0,33.0,-100.00,WSW,253,7.0,-999.0,84,-99.99,,,-99.99,,2014-12-25 11:40:00,
2014-12-25 07:12:00,37.0,33.0,-100.00,WSW,253,7.0,-999.0,84,-99.99,,,-99.99,,2014-12-25 12:12:00,
2014-12-25 07:22:00,37.0,33.0,-100.00,WSW,253,7.0,-999.0,84,-99.99,,,-99.99,,2014-12-25 12:22:00,
2014-12-25 07:32:00,37.0,33.0,-100.00,WSW,253,7.0,-999.0,84,-99.99,,,-99.99,,2014-12-25 12:32:00,
2014-12-25 10:53:00,37.0,33.0,-100.00,WSW,237,5.0,-999.0,85,-99.99,,,-99.99,,2014-12-25 15:53:00,
2014-12-25 11:43:00,39.0,33.0,-100.00,SW,231,6.0,-999.0,78,-99.99,,,-99.99,,2014-12-25 16:43:00,
2014-12-25 11:53:00,39.0,33.0,-100.00,SW,231,6.0,-999.0,78,-99.99,,,-99.99,,2014-12-25 16:53:00,
2014-12-25 12:03:00,39.0,33.0,-100.00,SW,231,6.0,-999.0,78,-99.99,,,-99.99,,2014-12-25 17:03:00,
2014-12-25 12:23:00,39.0,33.0,-100.00,WSW,241,5.0,-999.0,79,-99.99,,,-99.99,,2014-12-25 17:23:00,
2014-12-25 13:22:00,40.0,33.0,-100.00,WSW,243,5.0,-999.0,77,-99.99,,,-99.99,,2014-12-25 18:22:00,
2014-12-25 13:32:00,40.0,33.0,-100.00,WSW,243,5.0,-999.0,77,-99.99,,,-99.99,,2014-12-25 18:32:00,
2014-12-25 13:42:00,40.0,33.0,-100.00,WSW,243,5.0,-999.0,77,-99.99,,,-99.99,,2014-12-25 18:42:00,
2014-12-25 13:52:00,40.0,33.0,-100.00,WSW,243,5.0,-999.0,77,-99.99,,,-99.99,,2014-12-25 18:52:00,
2014-12-25 16:44:00,41.0,32.0,-100.00,SW,221,7.0,-999.0,71,-99.99,,,-99.99,,2014-12-25 21:44:00,
2014-12-25 18:22:00,36.0,30.0,-100.00,SSW,200,2.0,-999.0,77,-99.99,,,-99.99,,2014-12-25 23:22:00,
2014-12-25 19:22:00,33.0,29.0,-100.00,South,176,3.0,-999.0,83,-99.99,,,-99.99,,2014-12-26 00:22:00,
2014-12-25 19:32:00,33.0,29.0,-100.00,South,176,3.0,-999.0,83,-99.99,,,-99.99,,2014-12-26 00:32:00,
2014-12-25 19:42:00,33.0,29.0,-100.00,South,176,3.0,-999.0,83,-99.99,,,-99.99,,2014-12-26 00:42:00,
2014-12-25 19:52:00,33.0,29.0,-100.00,South,176,3.0,-999.0,83,-99.99,,,-99.99,,2014-12-26 00:52:00,